Time;durP1;ratioP1;P1;durP2;ratioP2;P2;SDS_P1;SDS_P2;PMS_P1;PMS_P2;Temp;Humidity;BMP_temperature;BMP_pressure;BME280_temperature;BME280_humidity;BME280_pressure;Samples;Min_cycle;Max_cycle;Signal;HPM_P1;HPM_P2
2023/06/14 00:00:40;;;;;;;4.28;2.50;;;21.00;59.50;;;;;;5024381;28;20029;-32
2023/06/14 00:03:08;;;;;;;2.47;2.28;;;21.00;59.70;;;;;;5023776;28;20046;-34
2023/06/14 00:05:38;;;;;;;3.15;2.85;;;21.00;59.80;;;;;;5023865;28;20068;-34
2023/06/14 00:08:07;;;;;;;3.55;2.67;;;20.90;59.90;;;;;;5024347;28;20041;-34
2023/06/14 00:10:35;;;;;;;2.67;2.28;;;20.90;60.00;;;;;;5022854;28;20036;-34
2023/06/14 00:13:07;;;;;;;3.13;2.50;;;20.90;60.10;;;;;;5023276;28;20029;-33
2023/06/14 00:15:33;;;;;;;5.55;2.92;;;20.80;60.00;;;;;;5020835;28;20074;-33
2023/06/14 00:18:02;;;;;;;2.88;2.30;;;20.90;60.20;;;;;;5023186;28;20120;-33
2023/06/14 00:20:28;;;;;;;2.63;2.08;;;20.80;60.20;;;;;;5022982;28;20021;-33
2023/06/14 00:22:57;;;;;;;2.67;2.20;;;20.80;60.20;;;;;;5023457;28;20045;-34
2023/06/14 00:25:26;;;;;;;7.55;2.80;;;20.80;60.40;;;;;;5023968;28;20036;-34
2023/06/14 00:27:53;;;;;;;2.97;2.30;;;20.70;60.40;;;;;;5024350;28;20043;-34
2023/06/14 00:30:19;;;;;;;2.78;2.45;;;20.70;60.70;;;;;;5024109;28;20471;-33
2023/06/14 00:32:45;;;;;;;3.53;2.47;;;20.70;60.90;;;;;;5023707;28;20484;-33
2023/06/14 00:35:11;;;;;;;2.50;2.25;;;20.60;60.90;;;;;;5024243;28;20061;-32
2023/06/14 00:37:37;;;;;;;3.33;2.17;;;20.60;60.90;;;;;;5023121;28;20029;-35
2023/06/14 00:40:07;;;;;;;2.28;1.83;;;20.60;61.10;;;;;;5024885;28;20073;-32
2023/06/14 00:42:41;;;;;;;5.65;2.80;;;20.60;61.10;;;;;;5023801;28;20034;-33
2023/06/14 00:45:10;;;;;;;3.35;2.40;;;20.50;61.20;;;;;;5022316;28;20492;-33
2023/06/14 00:47:38;;;;;;;2.22;1.88;;;20.50;61.10;;;;;;5024482;28;20108;-33
2023/06/14 00:50:07;;;;;;;3.40;2.28;;;20.50;61.20;;;;;;5026849;28;20442;-33
2023/06/14 00:52:32;;;;;;;3.95;2.60;;;20.50;61.30;;;;;;5026262;28;20057;-33
2023/06/14 00:54:58;;;;;;;2.80;2.00;;;20.50;61.50;;;;;;5027404;28;20022;-33
2023/06/14 00:57:24;;;;;;;3.47;2.42;;;20.50;61.60;;;;;;5026524;28;20030;-33
2023/06/14 00:59:50;;;;;;;3.35;2.25;;;20.40;61.70;;;;;;5026490;28;20109;-34
2023/06/14 01:02:17;;;;;;;3.00;2.35;;;20.40;61.80;;;;;;5027793;28;20163;-34
2023/06/14 01:04:47;;;;;;;4.60;2.00;;;20.40;61.80;;;;;;5026900;28;20040;-34
2023/06/14 01:07:28;;;;;;;2.78;2.42;;;20.40;62.00;;;;;;5027219;28;20025;-34
2023/06/14 01:10:18;;;;;;;5.00;2.55;;;20.40;62.00;;;;;;5027021;28;20136;-33
2023/06/14 01:12:52;;;;;;;5.05;2.30;;;20.30;62.00;;;;;;5025800;28;20115;-32
2023/06/14 01:15:20;;;;;;;2.65;2.03;;;20.30;62.20;;;;;;5027286;28;20377;-33
2023/06/14 01:17:46;;;;;;;2.35;2.05;;;20.20;62.20;;;;;;5026501;28;20030;-33
2023/06/14 01:20:14;;;;;;;3.80;2.25;;;20.20;62.30;;;;;;5025613;28;20029;-33
2023/06/14 01:22:51;;;;;;;3.40;2.10;;;20.20;62.40;;;;;;5026629;28;20033;-33
2023/06/14 01:25:20;;;;;;;5.78;2.25;;;20.20;62.50;;;;;;5027005;28;20101;-34
2023/06/14 01:27:50;;;;;;;3.20;2.03;;;20.10;62.50;;;;;;5026556;28;20029;-33
2023/06/14 01:30:17;;;;;;;2.38;2.17;;;20.10;62.50;;;;;;5027348;28;20025;-34
2023/06/14 01:32:44;;;;;;;3.97;1.98;;;20.10;62.50;;;;;;5026620;28;20396;-32
2023/06/14 01:35:10;;;;;;;3.55;2.45;;;20.10;62.60;;;;;;5025818;28;20028;-32
2023/06/14 01:37:40;;;;;;;2.78;1.77;;;20.10;62.70;;;;;;5025551;28;20171;-32
2023/06/14 01:40:08;;;;;;;5.18;2.40;;;20.00;62.80;;;;;;5025715;28;20025;-34
2023/06/14 01:42:39;;;;;;;2.58;2.10;;;20.00;62.80;;;;;;5025463;28;20026;-33
2023/06/14 01:45:06;;;;;;;6.10;2.22;;;20.00;62.90;;;;;;5027158;28;20037;-34
2023/06/14 01:47:35;;;;;;;4.65;2.13;;;20.00;63.00;;;;;;5025054;28;20602;-32
2023/06/14 01:50:01;;;;;;;2.88;1.98;;;20.00;63.00;;;;;;5026726;28;20040;-33
2023/06/14 01:52:29;;;;;;;3.63;2.03;;;19.90;63.10;;;;;;5025398;28;20049;-32
2023/06/14 01:54:55;;;;;;;2.45;1.70;;;19.90;63.10;;;;;;5025693;28;20037;-33
2023/06/14 01:57:22;;;;;;;2.45;1.90;;;19.90;63.20;;;;;;5025300;28;20383;-33
2023/06/14 01:59:48;;;;;;;2.55;1.77;;;19.90;63.40;;;;;;5026033;28;20439;-32
2023/06/14 02:02:17;;;;;;;3.13;2.20;;;19.80;63.30;;;;;;5024435;28;20021;-33
2023/06/14 02:04:42;;;;;;;2.65;1.73;;;19.80;63.50;;;;;;5025790;28;20445;-32
2023/06/14 02:07:11;;;;;;;2.67;2.00;;;19.80;63.60;;;;;;5026475;28;20029;-32
2023/06/14 02:09:36;;;;;;;2.38;1.90;;;19.70;63.60;;;;;;5025183;28;20896;-33
2023/06/14 02:12:02;;;;;;;1.83;1.65;;;19.80;63.70;;;;;;5026135;28;20540;-33
2023/06/14 02:14:27;;;;;;;3.67;1.92;;;19.70;63.60;;;;;;5025141;28;20120;-33
2023/06/14 02:16:53;;;;;;;5.72;2.00;;;19.70;63.70;;;;;;5024719;28;20052;-33
2023/06/14 02:19:20;;;;;;;3.55;2.03;;;19.70;63.80;;;;;;5026122;28;20095;-33
2023/06/14 02:21:46;;;;;;;2.28;2.08;;;19.60;63.90;;;;;;5025678;28;20022;-34
2023/06/14 02:24:12;;;;;;;2.35;2.08;;;19.60;64.00;;;;;;5025427;28;20029;-33
2023/06/14 02:26:38;;;;;;;3.13;2.10;;;19.60;64.10;;;;;;5024885;28;20123;-33
2023/06/14 02:29:05;;;;;;;3.05;1.90;;;19.60;64.20;;;;;;5025537;28;20481;-33
2023/06/14 02:31:32;;;;;;;4.32;2.10;;;19.50;64.20;;;;;;5025175;28;20025;-34
2023/06/14 02:33:58;;;;;;;2.60;2.20;;;19.50;64.30;;;;;;5026512;28;20809;-34
2023/06/14 02:36:24;;;;;;;3.80;2.40;;;19.50;64.40;;;;;;5025447;28;20029;-34
2023/06/14 02:38:50;;;;;;;3.30;2.40;;;19.50;64.50;;;;;;5026053;28;20136;-34
2023/06/14 02:41:18;;;;;;;4.47;2.00;;;19.50;64.50;;;;;;5026058;28;20619;-34
2023/06/14 02:43:44;;;;;;;2.35;1.88;;;19.40;64.60;;;;;;5024386;28;20084;-34
2023/06/14 02:46:09;;;;;;;2.50;2.08;;;19.40;64.70;;;;;;5025335;28;20135;-34
2023/06/14 02:48:35;;;;;;;3.47;2.15;;;19.40;64.70;;;;;;5024094;28;20102;-33
2023/06/14 02:51:00;;;;;;;3.53;2.05;;;19.40;64.90;;;;;;5024658;28;20486;-33
2023/06/14 02:53:26;;;;;;;2.97;2.05;;;19.30;64.90;;;;;;5024528;28;20752;-33
2023/06/14 02:55:52;;;;;;;4.65;2.60;;;19.30;65.00;;;;;;5023879;28;20026;-33
2023/06/14 02:58:18;;;;;;;2.25;2.03;;;19.30;65.00;;;;;;5024408;28;20068;-33
2023/06/14 03:00:43;;;;;;;5.95;2.10;;;19.20;65.00;;;;;;5025160;28;20457;-34
2023/06/14 03:03:13;;;;;;;3.92;1.90;;;19.20;65.10;;;;;;5025072;28;20033;-34
2023/06/14 03:05:47;;;;;;;2.80;1.80;;;19.20;65.10;;;;;;5023499;28;20037;-32
2023/06/14 03:08:19;;;;;;;1.77;1.60;;;19.20;65.20;;;;;;5025190;28;20017;-34
2023/06/14 03:11:08;;;;;;;4.82;2.15;;;19.10;65.20;;;;;;5023254;28;20556;-33
2023/06/14 03:13:38;;;;;;;4.68;1.73;;;19.10;65.40;;;;;;5020127;28;20141;-33
2023/06/14 03:16:04;;;;;;;2.42;2.15;;;19.10;65.50;;;;;;5024880;28;20033;-34
2023/06/14 03:18:35;;;;;;;1.80;1.70;;;19.10;65.60;;;;;;5024360;28;20553;-35
2023/06/14 03:21:04;;;;;;;3.55;1.90;;;19.10;65.60;;;;;;5025311;28;20033;-34
2023/06/14 03:23:36;;;;;;;2.58;1.95;;;19.00;65.70;;;;;;5023996;28;20064;-34
2023/06/14 03:26:02;;;;;;;2.45;1.80;;;19.00;65.80;;;;;;5022601;28;20069;-33
2023/06/14 03:28:27;;;;;;;3.10;1.88;;;19.00;65.80;;;;;;5024167;28;20053;-34
2023/06/14 03:30:53;;;;;;;3.92;1.90;;;19.00;66.50;;;;;;5023830;28;20387;-34
2023/06/14 03:33:19;;;;;;;3.17;2.15;;;18.90;66.00;;;;;;5023802;28;20715;-35
2023/06/14 03:35:44;;;;;;;2.85;1.92;;;18.90;66.20;;;;;;5023356;28;20041;-34
2023/06/14 03:38:10;;;;;;;2.67;2.00;;;18.80;66.20;;;;;;5025024;28;20025;-33
2023/06/14 03:40:36;;;;;;;3.30;1.80;;;18.90;67.10;;;;;;5021981;28;20096;-34
2023/06/14 03:43:02;;;;;;;3.17;1.73;;;18.80;66.50;;;;;;5025551;28;20129;-33
2023/06/14 03:45:27;;;;;;;2.53;1.85;;;18.80;66.70;;;;;;5024195;28;20021;-33
2023/06/14 03:47:53;;;;;;;3.22;2.30;;;18.80;66.90;;;;;;5023213;28;20388;-34
2023/06/14 03:50:18;;;;;;;2.00;1.80;;;18.70;66.90;;;;;;5024366;28;20468;-34
2023/06/14 03:52:44;;;;;;;2.45;2.22;;;18.70;67.00;;;;;;5022823;28;20100;-32
2023/06/14 03:55:13;;;;;;;3.55;1.90;;;18.70;67.10;;;;;;5024232;28;20053;-33
2023/06/14 03:57:41;;;;;;;2.05;1.60;;;18.70;67.20;;;;;;5024119;28;20033;-41
2023/06/14 04:00:09;;;;;;;2.30;2.10;;;18.70;67.20;;;;;;5024225;28;20036;-33
2023/06/14 04:02:36;;;;;;;4.55;2.15;;;18.70;67.30;;;;;;5023476;28;20041;-33
2023/06/14 04:05:02;;;;;;;2.67;1.90;;;18.70;67.40;;;;;;5024427;28;20037;-33
2023/06/14 04:07:28;;;;;;;3.78;2.20;;;18.60;67.40;;;;;;5023148;28;20022;-33
2023/06/14 04:09:54;;;;;;;2.80;2.13;;;18.70;67.60;;;;;;5023322;28;20036;-34
2023/06/14 04:12:23;;;;;;;3.53;2.10;;;18.60;67.60;;;;;;5024573;28;20101;-34
2023/06/14 04:14:54;;;;;;;2.92;2.08;;;18.60;67.80;;;;;;5023374;28;20112;-34
2023/06/14 04:17:22;;;;;;;3.15;2.00;;;18.60;67.90;;;;;;5023505;28;20488;-34
2023/06/14 04:19:47;;;;;;;2.83;2.13;;;18.60;67.90;;;;;;5024015;28;20487;-34
2023/06/14 04:22:13;;;;;;;4.13;2.10;;;18.60;67.90;;;;;;5025057;28;20025;-33
2023/06/14 04:24:39;;;;;;;3.78;2.05;;;18.60;68.00;;;;;;5028112;28;20202;-33
2023/06/14 04:27:04;;;;;;;2.88;2.17;;;18.60;68.10;;;;;;5028092;28;20029;-33
2023/06/14 04:29:31;;;;;;;3.00;2.30;;;18.60;68.20;;;;;;5026941;28;20033;-33
2023/06/14 04:32:00;;;;;;;3.80;2.05;;;18.50;68.20;;;;;;5028051;28;20060;-34
2023/06/14 04:34:29;;;;;;;3.28;2.20;;;18.50;68.40;;;;;;5025946;28;20059;-34
2023/06/14 04:36:56;;;;;;;2.05;1.88;;;18.50;68.40;;;;;;5025966;28;20082;-33
2023/06/14 04:39:22;;;;;;;5.25;1.95;;;18.60;68.50;;;;;;5027257;28;20033;-33
2023/06/14 04:41:52;;;;;;;2.30;1.77;;;18.60;68.70;;;;;;5027351;28;20022;-34
2023/06/14 04:44:19;;;;;;;3.50;2.00;;;18.60;68.60;;;;;;5027002;28;20041;-35
2023/06/14 04:46:48;;;;;;;3.40;1.90;;;18.60;68.70;;;;;;5027276;28;20100;-34
2023/06/14 04:49:18;;;;;;;3.25;2.25;;;18.60;68.70;;;;;;5028040;28;20087;-33
2023/06/14 04:51:45;;;;;;;3.38;1.90;;;18.60;68.80;;;;;;5026501;28;20562;-33
2023/06/14 04:54:13;;;;;;;2.70;1.77;;;18.60;68.90;;;;;;5027941;28;20045;-34
2023/06/14 04:56:40;;;;;;;3.10;1.83;;;18.60;68.90;;;;;;5026797;28;20530;-35
2023/06/14 04:59:06;;;;;;;2.15;1.95;;;18.60;69.10;;;;;;5026979;28;20036;-33
2023/06/14 05:01:33;;;;;;;2.00;1.80;;;18.60;69.00;;;;;;5026674;28;20754;-33
2023/06/14 05:03:59;;;;;;;5.78;2.15;;;18.60;69.00;;;;;;5027110;28;20036;-33
2023/06/14 05:06:28;;;;;;;4.93;2.08;;;18.60;69.10;;;;;;5026933;28;20120;-33
2023/06/14 05:08:54;;;;;;;3.45;1.80;;;18.60;69.10;;;;;;5026911;28;20468;-33
2023/06/14 05:11:20;;;;;;;2.13;1.88;;;18.70;69.10;;;;;;5027155;28;20032;-33
2023/06/14 05:13:46;;;;;;;2.97;2.22;;;18.70;69.10;;;;;;5024621;28;20026;-32
2023/06/14 05:16:12;;;;;;;2.30;2.00;;;18.70;69.30;;;;;;5020723;28;20257;-33
2023/06/14 05:18:40;;;;;;;2.47;2.22;;;18.70;69.30;;;;;;5021000;28;20123;-33
2023/06/14 05:21:11;;;;;;;2.75;1.77;;;18.80;69.30;;;;;;5026614;28;20672;-33
2023/06/14 05:23:37;;;;;;;4.40;2.33;;;18.80;69.30;;;;;;5025906;28;20041;-34
2023/06/14 05:26:06;;;;;;;3.05;2.38;;;18.80;69.30;;;;;;5026253;28;20029;-33
2023/06/14 05:28:32;;;;;;;4.28;2.00;;;18.80;69.30;;;;;;5026386;28;20021;-33
2023/06/14 05:31:00;;;;;;;2.65;1.95;;;18.80;69.30;;;;;;5025880;28;20033;-33
2023/06/14 05:33:25;;;;;;;2.28;2.05;;;18.90;69.30;;;;;;5026038;28;20033;-33
2023/06/14 05:35:51;;;;;;;4.13;2.20;;;18.90;69.30;;;;;;5026386;28;20029;-34
2023/06/14 05:38:17;;;;;;;4.00;1.88;;;18.90;69.30;;;;;;5025925;28;20111;-34
2023/06/14 05:40:42;;;;;;;2.55;2.13;;;18.90;69.20;;;;;;5025711;28;20037;-33
2023/06/14 05:43:08;;;;;;;2.88;2.33;;;19.00;69.30;;;;;;5027252;28;20033;-34
2023/06/14 05:45:33;;;;;;;2.70;2.05;;;19.00;69.20;;;;;;5025910;28;20747;-34
2023/06/14 05:47:59;;;;;;;2.67;1.90;;;19.00;69.20;;;;;;5024243;28;20033;-33
2023/06/14 05:50:24;;;;;;;2.60;1.95;;;19.10;69.20;;;;;;5024462;28;20552;-33
2023/06/14 05:52:50;;;;;;;2.42;2.20;;;19.10;69.20;;;;;;5026732;28;20886;-33
2023/06/14 05:55:16;;;;;;;4.50;2.13;;;19.10;69.20;;;;;;5026379;28;20671;-33
2023/06/14 05:57:42;;;;;;;3.30;2.15;;;19.10;69.20;;;;;;5026277;28;20030;-33
2023/06/14 06:00:11;;;;;;;2.05;1.85;;;19.20;69.30;;;;;;5024907;28;20122;-32
2023/06/14 06:02:37;;;;;;;2.45;2.10;;;19.20;69.20;;;;;;5020730;28;20060;-33
2023/06/14 06:05:06;;;;;;;4.40;2.30;;;19.30;69.20;;;;;;5024561;28;20224;-33
2023/06/14 06:07:31;;;;;;;3.17;2.13;;;19.30;69.20;;;;;;5024361;28;20444;-33
2023/06/14 06:09:57;;;;;;;2.33;1.80;;;19.30;69.10;;;;;;5025827;28;20060;-33
2023/06/14 06:12:22;;;;;;;5.00;1.85;;;19.30;69.20;;;;;;5023912;28;20029;-33
2023/06/14 06:14:48;;;;;;;2.58;2.13;;;19.40;69.20;;;;;;5023740;28;20112;-33
2023/06/14 06:17:16;;;;;;;3.25;2.00;;;19.40;69.20;;;;;;5025776;28;20671;-33
2023/06/14 06:19:42;;;;;;;2.20;2.00;;;19.50;69.20;;;;;;5024904;28;20492;-33
2023/06/14 06:22:07;;;;;;;2.10;1.90;;;19.50;69.20;;;;;;5024703;28;20028;-33
2023/06/14 06:24:36;;;;;;;3.33;2.22;;;19.60;69.20;;;;;;5025130;28;20021;-35
2023/06/14 06:27:02;;;;;;;2.00;1.52;;;19.60;69.20;;;;;;5024570;28;20090;-34
2023/06/14 06:29:30;;;;;;;3.15;1.80;;;19.70;69.10;;;;;;5024215;28;20544;-34
2023/06/14 06:32:02;;;;;;;3.63;1.75;;;19.70;69.10;;;;;;5024388;28;20021;-34
2023/06/14 06:34:28;;;;;;;2.63;2.13;;;19.80;69.20;;;;;;5024989;28;20033;-35
2023/06/14 06:36:53;;;;;;;2.33;2.13;;;19.90;69.20;;;;;;5022899;28;20051;-33
2023/06/14 06:39:22;;;;;;;4.15;1.98;;;19.90;69.20;;;;;;5023171;28;20086;-33
2023/06/14 06:41:47;;;;;;;3.83;1.92;;;20.00;69.20;;;;;;5024725;28;20086;-33
2023/06/14 06:44:13;;;;;;;8.00;2.03;;;20.00;69.10;;;;;;5024446;28;20045;-32
2023/06/14 06:46:40;;;;;;;2.28;2.00;;;20.10;69.10;;;;;;5025460;28;20021;-33
2023/06/14 06:49:07;;;;;;;4.97;2.28;;;20.10;69.00;;;;;;5026198;28;20029;-33
2023/06/14 06:51:32;;;;;;;3.55;2.10;;;20.20;69.60;;;;;;5021010;28;20086;-33
2023/06/14 06:53:58;;;;;;;3.15;2.03;;;20.20;69.00;;;;;;5025300;28;20041;-33
2023/06/14 06:56:31;;;;;;;2.65;2.03;;;20.20;68.90;;;;;;5024740;28;20381;-34
2023/06/14 06:58:57;;;;;;;5.65;2.30;;;20.30;68.80;;;;;;5024277;28;20053;-33
2023/06/14 07:01:24;;;;;;;2.15;1.92;;;20.30;68.70;;;;;;5021228;28;20480;-32
2023/06/14 07:03:49;;;;;;;2.47;1.92;;;20.30;68.60;;;;;;5015118;28;20054;-33
2023/06/14 07:06:18;;;;;;;3.83;2.13;;;20.40;68.50;;;;;;5020822;28;20035;-33
2023/06/14 07:08:48;;;;;;;2.60;1.92;;;20.50;68.50;;;;;;5024698;28;20128;-33
2023/06/14 07:11:13;;;;;;;3.28;2.05;;;20.50;68.30;;;;;;5020157;28;20030;-33
2023/06/14 07:13:39;;;;;;;3.60;2.00;;;20.50;68.20;;;;;;5024547;28;20378;-33
2023/06/14 07:16:05;;;;;;;3.30;1.58;;;20.60;68.20;;;;;;5022399;28;20358;-34
2023/06/14 07:18:31;;;;;;;1.58;1.48;;;20.60;68.10;;;;;;5021772;28;20060;-34
2023/06/14 07:21:06;;;;;;;1.80;1.63;;;20.70;68.00;;;;;;5025232;28;20075;-35
2023/06/14 07:23:32;;;;;;;2.30;1.58;;;20.70;67.90;;;;;;5023444;28;20079;-34
2023/06/14 07:26:01;;;;;;;2.08;1.55;;;20.70;67.90;;;;;;5023231;28;20523;-34
2023/06/14 07:28:26;;;;;;;2.28;1.60;;;20.70;67.80;;;;;;5022937;28;20030;-34
2023/06/14 07:30:52;;;;;;;2.50;1.50;;;20.80;67.80;;;;;;5022924;28;20033;-33
2023/06/14 07:33:17;;;;;;;1.85;1.30;;;20.80;67.80;;;;;;5022839;28;20479;-33
2023/06/14 07:35:43;;;;;;;1.55;1.45;;;20.90;67.80;;;;;;5022964;28;20044;-33
2023/06/14 07:38:08;;;;;;;2.63;1.70;;;21.00;67.80;;;;;;5024516;28;20114;-33
2023/06/14 07:40:34;;;;;;;6.82;2.00;;;21.00;67.70;;;;;;5022737;28;20026;-32
2023/06/14 07:43:01;;;;;;;1.73;1.52;;;21.00;67.60;;;;;;5024289;28;20121;-33
2023/06/14 07:45:27;;;;;;;1.90;1.60;;;21.10;67.60;;;;;;5024048;28;20384;-33
2023/06/14 07:47:58;;;;;;;2.42;1.50;;;21.10;67.40;;;;;;5022232;28;20075;-33
2023/06/14 07:50:24;;;;;;;3.10;1.50;;;21.10;67.30;;;;;;5023282;28;20117;-33
2023/06/14 07:52:50;;;;;;;2.50;1.50;;;21.20;67.20;;;;;;5022732;28;20061;-34
2023/06/14 07:55:15;;;;;;;1.40;1.30;;;21.20;67.10;;;;;;5024734;28;20056;-33
2023/06/14 07:57:42;;;;;;;1.55;1.30;;;21.20;66.90;;;;;;5027844;28;20032;-33
2023/06/14 08:00:15;;;;;;;1.98;1.73;;;21.30;66.60;;;;;;5025645;28;20770;-33
2023/06/14 08:02:41;;;;;;;1.30;1.20;;;21.30;66.40;;;;;;5025428;28;20041;-34
2023/06/14 08:05:08;;;;;;;2.90;1.08;;;21.40;66.30;;;;;;5025939;28;20395;-33
2023/06/14 08:07:33;;;;;;;1.15;1.05;;;21.50;66.20;;;;;;5026619;28;20425;-34
2023/06/14 08:09:59;;;;;;;1.48;1.20;;;21.50;66.00;;;;;;5027190;28;20064;-33
2023/06/14 08:12:24;;;;;;;1.98;1.20;;;21.60;65.90;;;;;;5026744;28;20035;-33
2023/06/14 08:14:56;;;;;;;1.10;1.00;;;21.60;65.70;;;;;;5025896;28;20041;-35
2023/06/14 08:17:22;;;;;;;1.80;0.90;;;21.70;65.40;;;;;;5026851;28;20139;-33
2023/06/14 08:19:47;;;;;;;2.95;1.10;;;21.70;65.20;;;;;;5027798;28;20504;-34
2023/06/14 08:22:13;;;;;;;1.70;1.13;;;21.70;65.10;;;;;;5025807;28;20037;-33
2023/06/14 08:24:42;;;;;;;1.13;1.00;;;21.80;65.10;;;;;;5023845;28;20670;-33
2023/06/14 08:27:08;;;;;;;1.20;1.10;;;21.80;65.10;;;;;;5026015;28;20460;-34
2023/06/14 08:29:34;;;;;;;1.40;1.30;;;21.90;64.70;;;;;;5015017;28;20618;-35
2023/06/14 08:32:00;;;;;;;1.75;1.20;;;21.90;64.40;;;;;;5011364;28;20030;-34
2023/06/14 08:34:26;;;;;;;1.48;1.20;;;21.90;64.10;;;;;;5025492;28;20037;-33
2023/06/14 08:36:51;;;;;;;1.30;1.20;;;21.90;64.00;;;;;;5027006;28;20028;-33
2023/06/14 08:39:17;;;;;;;1.38;1.27;;;22.00;64.00;;;;;;5026574;28;20029;-34
2023/06/14 08:41:46;;;;;;;2.65;1.40;;;22.00;63.60;;;;;;5026967;28;20026;-34
2023/06/14 08:44:12;;;;;;;1.58;1.20;;;22.00;63.30;;;;;;5023385;28;20108;-33
2023/06/14 08:46:38;;;;;;;1.10;1.00;;;22.10;63.30;;;;;;5026048;28;20021;-34
2023/06/14 08:49:16;;;;;;;1.40;1.30;;;22.10;63.30;;;;;;5023957;28;20044;-34
2023/06/14 08:51:47;;;;;;;1.50;1.40;;;22.20;63.50;;;;;;5018813;28;20029;-33
2023/06/14 08:54:13;;;;;;;1.10;1.10;;;22.20;63.50;;;;;;5025676;28;20038;-33
2023/06/14 08:56:43;;;;;;;1.48;1.10;;;22.20;63.70;;;;;;5025502;28;20579;-33
2023/06/14 08:59:09;;;;;;;2.15;1.40;;;22.20;63.80;;;;;;5022982;28;20445;-34
2023/06/14 09:01:36;;;;;;;1.50;1.25;;;22.30;63.80;;;;;;5020016;28;20423;-34
2023/06/14 09:04:05;;;;;;;1.38;1.27;;;22.40;63.70;;;;;;5022288;28;20308;-34
2023/06/14 09:06:31;;;;;;;1.10;1.00;;;22.40;63.40;;;;;;5024328;28;20072;-34
2023/06/14 09:08:57;;;;;;;2.20;1.25;;;22.50;62.90;;;;;;5024858;28;20516;-33
2023/06/14 09:11:23;;;;;;;1.10;1.00;;;22.50;62.60;;;;;;5024959;28;20029;-33
2023/06/14 09:13:49;;;;;;;1.98;1.13;;;22.50;62.50;;;;;;5026409;28;20770;-34
2023/06/14 09:16:18;;;;;;;2.00;1.00;;;22.60;62.60;;;;;;5025749;28;20021;-33
2023/06/14 09:18:47;;;;;;;1.10;0.88;;;22.60;62.70;;;;;;5025688;28;20021;-32
2023/06/14 09:21:14;;;;;;;1.20;1.05;;;22.60;62.70;;;;;;5026133;28;20460;-33
2023/06/14 09:23:41;;;;;;;2.17;1.42;;;22.70;62.70;;;;;;5026415;28;20113;-34
2023/06/14 09:26:19;;;;;;;1.42;1.20;;;22.70;62.40;;;;;;5025698;28;20144;-34
2023/06/14 09:28:47;;;;;;;1.23;1.13;;;22.70;62.10;;;;;;5025511;28;20022;-33
2023/06/14 09:31:15;;;;;;;1.20;1.10;;;22.70;61.80;;;;;;5026274;28;20048;-33
2023/06/14 09:33:57;;;;;;;2.63;1.15;;;22.80;61.80;;;;;;5025786;28;20021;-33
2023/06/14 09:36:25;;;;;;;1.10;1.00;;;22.80;61.80;;;;;;5025742;28;20035;-33
2023/06/14 09:39:08;;;;;;;1.10;1.00;;;22.90;61.90;;;;;;5025303;28;20104;-33
2023/06/14 09:41:35;;;;;;;1.80;1.10;;;22.90;62.00;;;;;;5025601;28;20090;-33
2023/06/14 09:44:03;;;;;;;2.60;1.20;;;22.90;62.10;;;;;;5026504;28;20076;-33
2023/06/14 09:46:29;;;;;;;1.35;1.25;;;23.00;62.20;;;;;;5025834;28;20022;-34
2023/06/14 09:48:56;;;;;;;0.88;0.88;;;23.00;62.30;;;;;;5026766;28;20029;-34
2023/06/14 09:51:30;;;;;;;3.13;1.20;;;23.10;62.40;;;;;;5026215;28;20029;-33
2023/06/14 09:54:00;;;;;;;1.80;1.30;;;23.10;62.40;;;;;;5026144;28;20124;-33
2023/06/14 09:56:30;;;;;;;1.23;1.13;;;23.10;62.10;;;;;;5025831;28;20044;-33
2023/06/14 09:58:57;;;;;;;2.20;1.02;;;23.20;61.70;;;;;;5026235;28;20038;-34
2023/06/14 10:01:30;;;;;;;1.00;0.90;;;23.20;61.10;;;;;;5025617;28;20110;-33
2023/06/14 10:04:19;;;;;;;2.45;1.33;;;23.20;61.00;;;;;;5022704;28;20041;-33
2023/06/14 10:06:45;;;;;;;1.10;1.00;;;23.20;60.80;;;;;;5025282;28;20392;-33
2023/06/14 10:09:12;;;;;;;1.40;1.25;;;23.20;60.60;;;;;;5026068;28;20029;-34
2023/06/14 10:11:43;;;;;;;1.77;1.20;;;23.20;60.30;;;;;;5025591;28;20144;-33
2023/06/14 10:14:11;;;;;;;2.35;0.93;;;23.20;60.30;;;;;;5024014;28;20032;-33
2023/06/14 10:17:04;;;;;;;3.28;1.10;;;23.20;60.30;;;;;;5025660;28;20109;-33
2023/06/14 10:19:52;;;;;;;1.17;1.08;;;23.20;60.30;;;;;;5021076;28;20373;-35
2023/06/14 10:22:24;;;;;;;1.38;1.15;;;23.20;60.40;;;;;;5024466;28;20128;-33
2023/06/14 10:24:50;;;;;;;2.17;1.00;;;23.30;60.50;;;;;;5025708;28;20133;-32
2023/06/14 10:27:18;;;;;;;1.30;1.20;;;23.30;60.60;;;;;;5024990;28;20022;-33
2023/06/14 10:29:52;;;;;;;1.65;1.30;;;23.40;60.50;;;;;;5025047;28;20691;-33
2023/06/14 10:32:19;;;;;;;2.67;1.20;;;23.40;60.20;;;;;;5024883;28;20060;-34
2023/06/14 10:34:45;;;;;;;1.85;1.20;;;23.40;60.10;;;;;;5024337;28;20104;-33
2023/06/14 10:37:12;;;;;;;1.10;0.85;;;23.50;60.20;;;;;;5024765;28;20041;-36
2023/06/14 10:39:45;;;;;;;2.95;1.15;;;23.50;60.30;;;;;;5024506;28;20017;-34
2023/06/14 10:42:11;;;;;;;2.47;1.25;;;23.50;60.30;;;;;;5024837;28;20041;-34
2023/06/14 10:44:48;;;;;;;0.80;0.80;;;23.50;60.20;;;;;;5024090;28;20057;-34
2023/06/14 10:47:34;;;;;;;1.92;1.08;;;23.60;60.20;;;;;;5005034;28;20083;-34
2023/06/14 10:50:08;;;;;;;1.00;0.90;;;23.70;60.20;;;;;;5022436;28;20072;-33
2023/06/14 10:52:38;;;;;;;0.90;0.90;;;23.60;60.20;;;;;;5024224;28;20479;-34
2023/06/14 10:55:09;;;;;;;1.38;1.13;;;23.60;60.20;;;;;;5024709;28;20029;-34
2023/06/14 10:57:36;;;;;;;1.38;1.20;;;23.70;60.40;;;;;;5024152;28;20865;-34
2023/06/14 11:00:11;;;;;;;1.10;1.00;;;23.70;60.00;;;;;;5024856;28;20370;-34
2023/06/14 11:02:37;;;;;;;1.45;1.30;;;23.70;59.90;;;;;;5024358;28;20124;-33
2023/06/14 11:05:10;;;;;;;1.50;1.10;;;23.80;59.70;;;;;;5023963;28;20037;-33
2023/06/14 11:07:58;;;;;;;1.30;1.10;;;23.80;59.50;;;;;;5024509;28;20021;-34
2023/06/14 11:10:41;;;;;;;2.75;1.08;;;23.80;59.10;;;;;;5023790;28;20033;-34
2023/06/14 11:13:08;;;;;;;3.22;1.10;;;23.80;58.80;;;;;;5004361;28;20072;-34
2023/06/14 11:15:35;;;;;;;1.17;1.08;;;23.80;58.80;;;;;;5019453;28;20021;-32
2023/06/14 11:18:02;;;;;;;1.50;1.00;;;23.90;58.50;;;;;;5024398;28;20601;-33
2023/06/14 11:20:31;;;;;;;1.10;1.00;;;23.80;58.40;;;;;;5024188;28;20372;-33
2023/06/14 11:22:57;;;;;;;1.08;1.00;;;23.90;58.60;;;;;;5024337;28;20424;-33
2023/06/14 11:25:23;;;;;;;1.70;1.30;;;23.90;58.80;;;;;;5023158;28;20041;-33
2023/06/14 11:27:52;;;;;;;1.33;1.10;;;23.90;58.80;;;;;;5025125;28;20028;-33
2023/06/14 11:30:17;;;;;;;1.42;1.15;;;23.90;58.30;;;;;;5023403;28;20028;-33
2023/06/14 11:32:50;;;;;;;1.17;1.08;;;23.90;58.00;;;;;;5023247;28;20115;-34
2023/06/14 11:35:16;;;;;;;;;;;23.90;57.90;;;;;;5024662;28;20465;-33
2023/06/14 11:37:42;;;;;;;1.30;1.20;;;23.90;57.80;;;;;;5023869;28;19916;-34
2023/06/14 11:40:09;;;;;;;2.55;1.00;;;23.90;58.00;;;;;;5023048;28;20125;-34
2023/06/14 11:42:36;;;;;;;1.10;0.93;;;23.80;58.20;;;;;;5023220;28;20029;-33
2023/06/14 11:45:03;;;;;;;2.83;1.30;;;23.90;58.20;;;;;;5023461;28;20037;-33
2023/06/14 11:47:35;;;;;;;1.20;0.93;;;23.90;58.20;;;;;;5023772;28;20091;-33
2023/06/14 11:50:02;;;;;;;2.08;1.30;;;23.90;58.20;;;;;;5023545;28;20075;-33
2023/06/14 11:52:31;;;;;;;1.17;1.00;;;24.00;58.50;;;;;;5023120;28;20052;-34
2023/06/14 11:54:58;;;;;;;1.25;1.00;;;24.00;58.60;;;;;;5024380;28;20489;-34
2023/06/14 11:57:25;;;;;;;3.13;1.30;;;24.10;58.60;;;;;;5023308;28;20098;-33
2023/06/14 11:59:51;;;;;;;1.33;1.10;;;24.10;58.50;;;;;;5023485;28;20065;-33
2023/06/14 12:02:17;;;;;;;1.60;1.20;;;24.10;58.80;;;;;;5023706;28;20108;-33
2023/06/14 12:04:43;;;;;;;1.50;1.15;;;24.10;58.90;;;;;;5024154;28;20084;-32
2023/06/14 12:07:17;;;;;;;2.20;1.00;;;24.20;59.10;;;;;;5022865;28;20026;-33
2023/06/14 12:10:06;;;;;;;2.22;1.10;;;24.20;58.90;;;;;;5024024;28;20359;-32
2023/06/14 12:12:38;;;;;;;2.70;0.90;;;24.20;58.80;;;;;;5023406;28;20622;-33
2023/06/14 12:15:08;;;;;;;1.42;1.10;;;24.30;59.00;;;;;;5003883;28;20017;-33
2023/06/14 12:17:35;;;;;;;1.40;1.20;;;24.30;59.00;;;;;;5018046;28;20057;-34
2023/06/14 12:20:22;;;;;;;0.93;0.82;;;24.30;58.60;;;;;;5024183;28;20025;-33
2023/06/14 12:22:56;;;;;;;1.35;1.10;;;24.30;58.50;;;;;;5023132;28;20026;-33
2023/06/14 12:25:31;;;;;;;0.90;0.90;;;24.30;58.20;;;;;;5023291;28;20559;-33
2023/06/14 12:27:57;;;;;;;1.80;0.90;;;24.30;58.20;;;;;;5023113;28;20026;-33
2023/06/14 12:30:23;;;;;;;1.20;0.98;;;24.30;58.20;;;;;;5022861;28;20076;-35
2023/06/14 12:32:52;;;;;;;1.70;1.08;;;24.30;58.30;;;;;;5023310;28;20021;-33
2023/06/14 12:35:21;;;;;;;1.48;0.98;;;24.30;58.30;;;;;;5023092;28;20025;-34
2023/06/14 12:37:46;;;;;;;2.58;1.00;;;24.30;58.50;;;;;;5023266;28;20067;-34
2023/06/14 12:40:13;;;;;;;1.00;0.90;;;24.40;58.70;;;;;;5023667;28;20033;-34
2023/06/14 12:42:38;;;;;;;3.20;1.02;;;24.50;58.80;;;;;;5023798;28;20021;-33
2023/06/14 12:45:07;;;;;;;1.08;0.98;;;24.50;58.70;;;;;;5026835;28;20045;-33
2023/06/14 12:47:33;;;;;;;0.90;0.80;;;24.60;58.60;;;;;;5026440;28;20014;-33
2023/06/14 12:49:58;;;;;;;1.15;0.88;;;24.60;58.60;;;;;;5027075;28;20765;-33
2023/06/14 12:52:24;;;;;;;1.00;0.90;;;24.60;58.80;;;;;;5026292;28;20064;-34